sensor_id;sensor_type;location;lat;lon;timestamp;pressure;altitude;pressure_sealevel;temperature;humidity
48614;BME280;34408;51.426;5.444;2024-02-16T00:01:08;100920.34;;;12.58;72.80
48614;BME280;34408;51.426;5.444;2024-02-16T00:03:35;100919.75;;;12.56;73.17
48614;BME280;34408;51.426;5.444;2024-02-16T00:06:05;100927.63;;;12.57;72.54
48614;BME280;34408;51.426;5.444;2024-02-16T00:08:33;100928.44;;;12.58;72.70
48614;BME280;34408;51.426;5.444;2024-02-16T00:11:05;100922.69;;;12.54;72.85
48614;BME280;34408;51.426;5.444;2024-02-16T00:13:33;100918.13;;;12.55;72.74
48614;BME280;34408;51.426;5.444;2024-02-16T00:16:01;100911.91;;;12.54;73.06
48614;BME280;34408;51.426;5.444;2024-02-16T00:18:28;100917.06;;;12.56;72.63
48614;BME280;34408;51.426;5.444;2024-02-16T00:20:57;100919.16;;;12.54;72.74
48614;BME280;34408;51.426;5.444;2024-02-16T00:23:26;100910.50;;;12.52;72.69
48614;BME280;34408;51.426;5.444;2024-02-16T00:25:54;100915.06;;;12.51;72.79
48614;BME280;34408;51.426;5.444;2024-02-16T00:28:21;100916.13;;;12.50;73.04
48614;BME280;34408;51.426;5.444;2024-02-16T00:30:49;100917.16;;;12.49;73.24
48614;BME280;34408;51.426;5.444;2024-02-16T00:33:17;100911.78;;;12.49;73.17
48614;BME280;34408;51.426;5.444;2024-02-16T00:35:45;100917.41;;;12.48;73.07
48614;BME280;34408;51.426;5.444;2024-02-16T00:38:15;100906.03;;;12.46;72.85
48614;BME280;34408;51.426;5.444;2024-02-16T00:40:44;100918.69;;;12.45;73.22
48614;BME280;34408;51.426;5.444;2024-02-16T00:43:12;100921.38;;;12.45;72.97
48614;BME280;34408;51.426;5.444;2024-02-16T00:45:40;100912.72;;;12.43;73.40
48614;BME280;34408;51.426;5.444;2024-02-16T00:48:11;100903.22;;;12.41;72.96
48614;BME280;34408;51.426;5.444;2024-02-16T00:50:39;100906.72;;;12.41;73.00
48614;BME280;34408;51.426;5.444;2024-02-16T00:53:09;100906.97;;;12.39;73.35
48614;BME280;34408;51.426;5.444;2024-02-16T00:55:37;100900.75;;;12.39;73.23
48614;BME280;34408;51.426;5.444;2024-02-16T00:58:09;100899.09;;;12.38;73.23
48614;BME280;34408;51.426;5.444;2024-02-16T01:00:37;100892.91;;;12.37;73.33
48614;BME280;34408;51.426;5.444;2024-02-16T01:03:05;100907.44;;;12.36;73.23
48614;BME280;34408;51.426;5.444;2024-02-16T01:05:33;100914.69;;;12.36;73.17
48614;BME280;34408;51.426;5.444;2024-02-16T01:08:02;100905.78;;;12.35;72.97
48614;BME280;34408;51.426;5.444;2024-02-16T01:10:30;100905.78;;;12.35;73.27
48614;BME280;34408;51.426;5.444;2024-02-16T01:12:58;100899.81;;;12.33;73.01
48614;BME280;34408;51.426;5.444;2024-02-16T01:15:27;100900.03;;;12.32;73.24
48614;BME280;34408;51.426;5.444;2024-02-16T01:17:54;100900.84;;;12.32;73.27
48614;BME280;34408;51.426;5.444;2024-02-16T01:20:22;100897.56;;;12.30;73.16
48614;BME280;34408;51.426;5.444;2024-02-16T01:22:50;100895.69;;;12.31;73.05
48614;BME280;34408;51.426;5.444;2024-02-16T01:25:19;100893.00;;;12.31;73.29
48614;BME280;34408;51.426;5.444;2024-02-16T01:27:46;100892.41;;;12.29;72.70
48614;BME280;34408;51.426;5.444;2024-02-16T01:30:14;100885.97;;;12.30;72.93
48614;BME280;34408;51.426;5.444;2024-02-16T01:32:46;100888.66;;;12.30;72.86
48614;BME280;34408;51.426;5.444;2024-02-16T01:35:14;100886.19;;;12.28;72.96
48614;BME280;34408;51.426;5.444;2024-02-16T01:37:42;100878.34;;;12.27;72.50
48614;BME280;34408;51.426;5.444;2024-02-16T01:40:10;100873.78;;;12.27;72.67
48614;BME280;34408;51.426;5.444;2024-02-16T01:42:41;100870.28;;;12.27;72.89
48614;BME280;34408;51.426;5.444;2024-02-16T01:45:09;100869.44;;;12.26;72.85
48614;BME280;34408;51.426;5.444;2024-02-16T01:47:38;100866.97;;;12.25;72.55
48614;BME280;34408;51.426;5.444;2024-02-16T01:50:08;100872.13;;;12.26;72.92
48614;BME280;34408;51.426;5.444;2024-02-16T01:52:37;100874.84;;;12.26;72.48
48614;BME280;34408;51.426;5.444;2024-02-16T01:55:05;100869.69;;;12.25;72.51
48614;BME280;34408;51.426;5.444;2024-02-16T01:57:35;100881.50;;;12.24;72.99
48614;BME280;34408;51.426;5.444;2024-02-16T02:00:04;100871.78;;;12.23;72.71
48614;BME280;34408;51.426;5.444;2024-02-16T02:02:34;100875.53;;;12.22;72.70
48614;BME280;34408;51.426;5.444;2024-02-16T02:05:03;100875.75;;;12.20;72.68
48614;BME280;34408;51.426;5.444;2024-02-16T02:07:33;100870.38;;;12.20;72.64
48614;BME280;34408;51.426;5.444;2024-02-16T02:10:00;100868.72;;;12.19;72.52
48614;BME280;34408;51.426;5.444;2024-02-16T02:12:28;100871.44;;;12.19;72.63
48614;BME280;34408;51.426;5.444;2024-02-16T02:14:56;100870.59;;;12.19;72.74
48614;BME280;34408;51.426;5.444;2024-02-16T02:17:24;100868.16;;;12.17;72.68
48614;BME280;34408;51.426;5.444;2024-02-16T02:19:52;100857.59;;;12.16;72.57
48614;BME280;34408;51.426;5.444;2024-02-16T02:22:22;100855.97;;;12.15;72.87
48614;BME280;34408;51.426;5.444;2024-02-16T02:24:50;100857.00;;;12.14;72.77
48614;BME280;34408;51.426;5.444;2024-02-16T02:27:17;100855.41;;;12.13;72.87
48614;BME280;34408;51.426;5.444;2024-02-16T02:29:45;100860.19;;;12.11;73.23
48614;BME280;34408;51.426;5.444;2024-02-16T02:32:13;100860.19;;;12.11;72.73
48614;BME280;34408;51.426;5.444;2024-02-16T02:34:41;100853.16;;;12.10;73.00
48614;BME280;34408;51.426;5.444;2024-02-16T02:37:09;100855.88;;;12.10;72.75
48614;BME280;34408;51.426;5.444;2024-02-16T02:39:40;100852.34;;;12.09;73.19
48614;BME280;34408;51.426;5.444;2024-02-16T02:42:07;100849.66;;;12.09;73.26
48614;BME280;34408;51.426;5.444;2024-02-16T02:44:36;100841.81;;;12.08;73.04
48614;BME280;34408;51.426;5.444;2024-02-16T02:47:04;100843.69;;;12.07;73.38
48614;BME280;34408;51.426;5.444;2024-02-16T02:49:32;100837.47;;;12.07;73.09
48614;BME280;34408;51.426;5.444;2024-02-16T02:52:02;100838.53;;;12.05;73.37
48614;BME280;34408;51.426;5.444;2024-02-16T02:54:30;100843.09;;;12.05;73.38
48614;BME280;34408;51.426;5.444;2024-02-16T02:56:59;100838.75;;;12.04;73.04
48614;BME280;34408;51.426;5.444;2024-02-16T02:59:28;100835.25;;;12.03;73.22
48614;BME280;34408;51.426;5.444;2024-02-16T03:01:56;100839.81;;;12.03;73.15
48614;BME280;34408;51.426;5.444;2024-02-16T03:04:24;100835.47;;;12.02;72.95
48614;BME280;34408;51.426;5.444;2024-02-16T03:06:52;100822.47;;;11.99;73.18
48614;BME280;34408;51.426;5.444;2024-02-16T03:09:20;100823.88;;;12.01;73.06
48614;BME280;34408;51.426;5.444;2024-02-16T03:11:49;100816.84;;;12.00;73.32
48614;BME280;34408;51.426;5.444;2024-02-16T03:14:18;100824.09;;;12.00;73.34
48614;BME280;34408;51.426;5.444;2024-02-16T03:16:46;100822.22;;;12.00;73.48
48614;BME280;34408;51.426;5.444;2024-02-16T03:19:14;100828.44;;;12.01;73.43
48614;BME280;34408;51.426;5.444;2024-02-16T03:21:42;100823.88;;;12.01;72.93
48614;BME280;34408;51.426;5.444;2024-02-16T03:24:10;100829.25;;;12.01;72.99
48614;BME280;34408;51.426;5.444;2024-02-16T03:26:38;100821.41;;;12.00;72.86
48614;BME280;34408;51.426;5.444;2024-02-16T03:29:06;100826.34;;;12.03;72.92
48614;BME280;34408;51.426;5.444;2024-02-16T03:31:35;100817.66;;;12.01;73.06
48614;BME280;34408;51.426;5.444;2024-02-16T03:34:03;100814.97;;;12.01;73.04
48614;BME280;34408;51.426;5.444;2024-02-16T03:36:32;100827.38;;;12.02;73.18
48614;BME280;34408;51.426;5.444;2024-02-16T03:39:01;100823.88;;;12.01;73.11
48614;BME280;34408;51.426;5.444;2024-02-16T03:41:29;100827.63;;;12.00;72.80
48614;BME280;34408;51.426;5.444;2024-02-16T03:43:57;100828.44;;;12.01;72.88
48614;BME280;34408;51.426;5.444;2024-02-16T03:46:25;100829.25;;;12.01;73.16
48614;BME280;34408;51.426;5.444;2024-02-16T03:48:54;100831.13;;;12.01;72.99
48614;BME280;34408;51.426;5.444;2024-02-16T03:51:22;100829.72;;;11.98;73.00
48614;BME280;34408;51.426;5.444;2024-02-16T03:53:50;100829.50;;;12.00;73.17
48614;BME280;34408;51.426;5.444;2024-02-16T03:56:20;100821.66;;;11.98;73.36
48614;BME280;34408;51.426;5.444;2024-02-16T03:58:48;100820.59;;;11.99;72.88
48614;BME280;34408;51.426;5.444;2024-02-16T04:01:16;100823.28;;;11.99;73.17
48614;BME280;34408;51.426;5.444;2024-02-16T04:03:44;100819.19;;;11.97;72.97
48614;BME280;34408;51.426;5.444;2024-02-16T04:06:13;100829.72;;;11.98;73.21
48614;BME280;34408;51.426;5.444;2024-02-16T04:08:41;100828.09;;;11.97;73.43
48614;BME280;34408;51.426;5.444;2024-02-16T04:11:11;100829.13;;;11.96;73.24
48614;BME280;34408;51.426;5.444;2024-02-16T04:13:38;100824.81;;;11.95;72.99
48614;BME280;34408;51.426;5.444;2024-02-16T04:16:06;100821.28;;;11.95;73.08
48614;BME280;34408;51.426;5.444;2024-02-16T04:18:34;100823.16;;;11.94;73.43
48614;BME280;34408;51.426;5.444;2024-02-16T04:21:03;100826.09;;;11.93;73.21
48614;BME280;34408;51.426;5.444;2024-02-16T04:23:32;100834.16;;;11.93;73.18
48614;BME280;34408;51.426;5.444;2024-02-16T04:25:59;100829.81;;;11.92;73.16
48614;BME280;34408;51.426;5.444;2024-02-16T04:28:27;100832.53;;;11.92;73.21
48614;BME280;34408;51.426;5.444;2024-02-16T04:30:55;100831.94;;;11.90;73.30
48614;BME280;34408;51.426;5.444;2024-02-16T04:33:23;100835.44;;;11.90;73.29
48614;BME280;34408;51.426;5.444;2024-02-16T04:35:51;100832.75;;;11.90;73.48
48614;BME280;34408;51.426;5.444;2024-02-16T04:38:19;100830.28;;;11.89;73.31
48614;BME280;34408;51.426;5.444;2024-02-16T04:40:48;100841.88;;;11.89;73.30
48614;BME280;34408;51.426;5.444;2024-02-16T04:43:16;100839.41;;;11.88;73.27
48614;BME280;34408;51.426;5.444;2024-02-16T04:45:44;100835.91;;;11.87;73.52
48614;BME280;34408;51.426;5.444;2024-02-16T04:48:12;100846.69;;;11.87;73.69
48614;BME280;34408;51.426;5.444;2024-02-16T04:50:40;100845.03;;;11.86;73.93
48614;BME280;34408;51.426;5.444;2024-02-16T04:53:08;100841.53;;;11.86;73.49
48614;BME280;34408;51.426;5.444;2024-02-16T04:55:35;100838.25;;;11.84;73.56
48614;BME280;34408;51.426;5.444;2024-02-16T04:58:05;100847.97;;;11.85;73.63
48614;BME280;34408;51.426;5.444;2024-02-16T05:00:36;100845.25;;;11.85;73.55
48614;BME280;34408;51.426;5.444;2024-02-16T05:03:05;100841.75;;;11.84;73.58
48614;BME280;34408;51.426;5.444;2024-02-16T05:05:33;100837.41;;;11.83;73.58
48614;BME280;34408;51.426;5.444;2024-02-16T05:08:00;100840.34;;;11.82;73.90
48614;BME280;34408;51.426;5.444;2024-02-16T05:10:28;100840.09;;;11.83;73.68
48614;BME280;34408;51.426;5.444;2024-02-16T05:12:56;100833.66;;;11.84;73.38
48614;BME280;34408;51.426;5.444;2024-02-16T05:15:27;100835.53;;;11.84;73.67
48614;BME280;34408;51.426;5.444;2024-02-16T05:17:55;100838.81;;;11.86;73.61
48614;BME280;34408;51.426;5.444;2024-02-16T05:20:24;100835.09;;;11.87;73.64
48614;BME280;34408;51.426;5.444;2024-02-16T05:22:55;100836.72;;;11.88;73.52
48614;BME280;34408;51.426;5.444;2024-02-16T05:25:23;100845.63;;;11.88;73.43
48614;BME280;34408;51.426;5.444;2024-02-16T05:27:51;100834.84;;;11.88;73.57
48614;BME280;34408;51.426;5.444;2024-02-16T05:30:18;100838.38;;;11.89;73.46
48614;BME280;34408;51.426;5.444;2024-02-16T05:32:48;100831.34;;;11.88;73.19
48614;BME280;34408;51.426;5.444;2024-02-16T05:35:16;100836.50;;;11.89;73.42
48614;BME280;34408;51.426;5.444;2024-02-16T05:37:45;100830.28;;;11.89;73.76
48614;BME280;34408;51.426;5.444;2024-02-16T05:40:15;100834.38;;;11.91;73.53
48614;BME280;34408;51.426;5.444;2024-02-16T05:42:49;100834.63;;;11.90;73.45
48614;BME280;34408;51.426;5.444;2024-02-16T05:45:17;100828.28;;;11.84;73.08
48614;BME280;34408;51.426;5.444;2024-02-16T05:47:45;100840.59;;;11.92;73.70
48614;BME280;34408;51.426;5.444;2024-02-16T05:50:15;100845.41;;;11.90;73.77
48614;BME280;34408;51.426;5.444;2024-02-16T05:52:44;100842.69;;;11.90;73.56
48614;BME280;34408;51.426;5.444;2024-02-16T05:55:12;100845.41;;;11.90;73.72
48614;BME280;34408;51.426;5.444;2024-02-16T05:57:40;100843.53;;;11.90;73.47
48614;BME280;34408;51.426;5.444;2024-02-16T06:00:09;100858.84;;;11.90;73.64
48614;BME280;34408;51.426;5.444;2024-02-16T06:02:37;100863.44;;;11.89;73.52
48614;BME280;34408;51.426;5.444;2024-02-16T06:05:06;100863.66;;;11.88;73.59
48614;BME280;34408;51.426;5.444;2024-02-16T06:07:36;100864.47;;;11.88;73.80
48614;BME280;34408;51.426;5.444;2024-02-16T06:10:06;100860.97;;;11.88;73.85
48614;BME280;34408;51.426;5.444;2024-02-16T06:12:38;100862.84;;;11.87;73.55
48614;BME280;34408;51.426;5.444;2024-02-16T06:15:06;100869.03;;;11.88;73.63
48614;BME280;34408;51.426;5.444;2024-02-16T06:17:35;100871.72;;;11.88;73.58
48614;BME280;34408;51.426;5.444;2024-02-16T06:20:05;100869.28;;;11.86;73.71
48614;BME280;34408;51.426;5.444;2024-02-16T06:22:37;100874.66;;;11.86;73.72
48614;BME280;34408;51.426;5.444;2024-02-16T06:25:05;100872.78;;;11.87;73.65
48614;BME280;34408;51.426;5.444;2024-02-16T06:27:33;100878.41;;;11.85;73.88
48614;BME280;34408;51.426;5.444;2024-02-16T06:30:01;100880.88;;;11.87;73.64
48614;BME280;34408;51.426;5.444;2024-02-16T06:32:30;100894.31;;;11.87;73.87
48614;BME280;34408;51.426;5.444;2024-02-16T06:34:58;100895.38;;;11.86;73.58
48614;BME280;34408;51.426;5.444;2024-02-16T06:37:26;100895.38;;;11.86;73.88
48614;BME280;34408;51.426;5.444;2024-02-16T06:39:55;100896.19;;;11.86;73.62
48614;BME280;34408;51.426;5.444;2024-02-16T06:42:23;100899.72;;;11.87;73.73
48614;BME280;34408;51.426;5.444;2024-02-16T06:44:51;100906.97;;;11.86;73.93
48614;BME280;34408;51.426;5.444;2024-02-16T06:47:19;100904.50;;;11.85;73.95
48614;BME280;34408;51.426;5.444;2024-02-16T06:49:47;100908.03;;;11.85;73.68
48614;BME280;34408;51.426;5.444;2024-02-16T06:52:15;100906.16;;;11.86;73.90
48614;BME280;34408;51.426;5.444;2024-02-16T06:54:43;100909.91;;;11.85;74.13
48614;BME280;34408;51.426;5.444;2024-02-16T06:57:12;100908.84;;;11.86;73.76
48614;BME280;34408;51.426;5.444;2024-02-16T06:59:40;100923.13;;;11.86;73.86
48614;BME280;34408;51.426;5.444;2024-02-16T07:02:08;100920.66;;;11.85;73.97
48614;BME280;34408;51.426;5.444;2024-02-16T07:04:39;100926.06;;;11.85;74.05
48614;BME280;34408;51.426;5.444;2024-02-16T07:07:07;100914.31;;;11.79;73.55
48614;BME280;34408;51.426;5.444;2024-02-16T07:09:35;100935.53;;;11.87;73.83
48614;BME280;34408;51.426;5.444;2024-02-16T07:12:07;100928.75;;;11.85;74.04
48614;BME280;34408;51.426;5.444;2024-02-16T07:14:36;100929.09;;;11.88;74.11
48614;BME280;34408;51.426;5.444;2024-02-16T07:17:04;100933.69;;;11.88;74.14
48614;BME280;34408;51.426;5.444;2024-02-16T07:19:36;100945.25;;;11.88;74.26
48614;BME280;34408;51.426;5.444;2024-02-16T07:22:05;100944.00;;;11.91;74.39
48614;BME280;34408;51.426;5.444;2024-02-16T07:24:34;100953.50;;;11.93;73.65
48614;BME280;34408;51.426;5.444;2024-02-16T07:27:02;100957.00;;;11.94;73.80
48614;BME280;34408;51.426;5.444;2024-02-16T07:29:30;100965.66;;;11.96;74.17
48614;BME280;34408;51.426;5.444;2024-02-16T07:31:59;100959.25;;;11.97;73.99
48614;BME280;34408;51.426;5.444;2024-02-16T07:34:27;100965.66;;;11.96;74.35
48614;BME280;34408;51.426;5.444;2024-02-16T07:36:55;100968.59;;;11.94;73.79
48614;BME280;34408;51.426;5.444;2024-02-16T07:39:23;100974.56;;;11.96;74.17
48614;BME280;34408;51.426;5.444;2024-02-16T07:41:52;100977.28;;;11.96;74.30
48614;BME280;34408;51.426;5.444;2024-02-16T07:44:20;100976.22;;;11.97;74.28
48614;BME280;34408;51.426;5.444;2024-02-16T07:46:47;100975.41;;;11.97;73.75
48614;BME280;34408;51.426;5.444;2024-02-16T07:49:18;100971.66;;;11.98;73.91
48614;BME280;34408;51.426;5.444;2024-02-16T07:51:46;100977.03;;;11.98;73.99
48614;BME280;34408;51.426;5.444;2024-02-16T07:54:15;100978.09;;;11.97;74.07
48614;BME280;34408;51.426;5.444;2024-02-16T07:56:43;100983.47;;;11.97;74.21
48614;BME280;34408;51.426;5.444;2024-02-16T07:59:11;100982.66;;;11.96;74.21
48614;BME280;34408;51.426;5.444;2024-02-16T08:01:38;100988.03;;;11.96;74.39
48614;BME280;34408;51.426;5.444;2024-02-16T08:04:07;100992.59;;;11.96;74.54
48614;BME280;34408;51.426;5.444;2024-02-16T08:06:36;100986.41;;;11.95;74.07
48614;BME280;34408;51.426;5.444;2024-02-16T08:09:04;100986.63;;;11.94;74.44
48614;BME280;34408;51.426;5.444;2024-02-16T08:11:33;100993.66;;;11.95;74.54
48614;BME280;34408;51.426;5.444;2024-02-16T08:14:01;101003.38;;;11.96;74.58
48614;BME280;34408;51.426;5.444;2024-02-16T08:16:29;101007.13;;;11.95;74.56
48614;BME280;34408;51.426;5.444;2024-02-16T08:18:57;101012.28;;;11.96;74.66
48614;BME280;34408;51.426;5.444;2024-02-16T08:21:25;101012.28;;;11.96;74.74
48614;BME280;34408;51.426;5.444;2024-02-16T08:23:55;101019.53;;;11.96;74.54
48614;BME280;34408;51.426;5.444;2024-02-16T08:26:22;101024.47;;;11.99;75.19
48614;BME280;34408;51.426;5.444;2024-02-16T08:28:50;101027.53;;;12.02;74.93
48614;BME280;34408;51.426;5.444;2024-02-16T08:31:18;101038.91;;;12.04;74.93
48614;BME280;34408;51.426;5.444;2024-02-16T08:33:46;101041.16;;;12.08;74.77
48614;BME280;34408;51.426;5.444;2024-02-16T08:36:14;101048.63;;;12.05;75.14
48614;BME280;34408;51.426;5.444;2024-02-16T08:38:42;101049.69;;;12.04;75.36
48614;BME280;34408;51.426;5.444;2024-02-16T08:41:12;101063.38;;;12.03;74.95
48614;BME280;34408;51.426;5.444;2024-02-16T08:43:40;101064.44;;;12.02;75.28
48614;BME280;34408;51.426;5.444;2024-02-16T08:46:08;101064.88;;;11.99;75.13
48614;BME280;34408;51.426;5.444;2024-02-16T08:48:36;101070.41;;;12.04;75.02
48614;BME280;34408;51.426;5.444;2024-02-16T08:51:04;101068.78;;;12.03;75.36
48614;BME280;34408;51.426;5.444;2024-02-16T08:53:33;101064.19;;;12.03;75.35
48614;BME280;34408;51.426;5.444;2024-02-16T08:56:01;101056.13;;;12.03;74.91
48614;BME280;34408;51.426;5.444;2024-02-16T08:58:30;101074.97;;;12.03;75.02
48614;BME280;34408;51.426;5.444;2024-02-16T09:00:58;101075.81;;;12.04;75.20
48614;BME280;34408;51.426;5.444;2024-02-16T09:03:26;101079.31;;;12.04;75.05
48614;BME280;34408;51.426;5.444;2024-02-16T09:05:54;101070.41;;;12.04;75.42
48614;BME280;34408;51.426;5.444;2024-02-16T09:08:22;101069.13;;;12.07;75.26
48614;BME280;34408;51.426;5.444;2024-02-16T09:10:49;101077.00;;;12.08;75.48
48614;BME280;34408;51.426;5.444;2024-02-16T09:13:18;101079.69;;;12.08;75.07
48614;BME280;34408;51.426;5.444;2024-02-16T09:16:01;101090.47;;;12.08;74.91
48614;BME280;34408;51.426;5.444;2024-02-16T09:18:28;101091.28;;;12.09;74.97
48614;BME280;34408;51.426;5.444;2024-02-16T09:20:57;101098.31;;;12.10;75.50
48614;BME280;34408;51.426;5.444;2024-02-16T09:23:25;101099.97;;;12.11;75.46
48614;BME280;34408;51.426;5.444;2024-02-16T09:25:53;101100.78;;;12.11;75.23
48614;BME280;34408;51.426;5.444;2024-02-16T09:28:21;101099.16;;;12.10;75.34
48614;BME280;34408;51.426;5.444;2024-02-16T09:30:56;101106.19;;;12.11;75.52
48614;BME280;34408;51.426;5.444;2024-02-16T09:33:25;101115.31;;;12.10;75.16
48614;BME280;34408;51.426;5.444;2024-02-16T09:35:54;101120.09;;;12.08;75.42
48614;BME280;34408;51.426;5.444;2024-02-16T09:38:22;101123.38;;;12.10;75.48
48614;BME280;34408;51.426;5.444;2024-02-16T09:40:50;101126.09;;;12.10;75.14
48614;BME280;34408;51.426;5.444;2024-02-16T09:43:25;101134.16;;;12.10;75.47
48614;BME280;34408;51.426;5.444;2024-02-16T09:45:55;101136.03;;;12.10;75.54
48614;BME280;34408;51.426;5.444;2024-02-16T09:48:25;101146.59;;;12.11;75.22
48614;BME280;34408;51.426;5.444;2024-02-16T09:50:55;101146.41;;;12.24;75.67
48614;BME280;34408;51.426;5.444;2024-02-16T09:53:25;101149.69;;;12.45;74.53
48614;BME280;34408;51.426;5.444;2024-02-16T09:55:53;101147.63;;;12.58;73.94
48614;BME280;34408;51.426;5.444;2024-02-16T09:58:21;101147.00;;;12.75;74.47
48614;BME280;34408;51.426;5.444;2024-02-16T10:00:51;101163.97;;;12.93;74.57
48614;BME280;34408;51.426;5.444;2024-02-16T10:03:28;101168.75;;;12.91;74.69
48614;BME280;34408;51.426;5.444;2024-02-16T10:06:07;101160.75;;;13.15;74.99
48614;BME280;34408;51.426;5.444;2024-02-16T10:08:47;101171.94;;;13.30;74.51
48614;BME280;34408;51.426;5.444;2024-02-16T10:11:15;101175.88;;;13.57;74.36
48614;BME280;34408;51.426;5.444;2024-02-16T10:13:58;101179.28;;;13.76;73.25
48614;BME280;34408;51.426;5.444;2024-02-16T10:16:26;101172.56;;;13.90;72.75
48614;BME280;34408;51.426;5.444;2024-02-16T10:19:04;101178.31;;;14.06;71.73
48614;BME280;34408;51.426;5.444;2024-02-16T10:21:32;101179.81;;;14.13;71.66
48614;BME280;34408;51.426;5.444;2024-02-16T10:24:01;101187.34;;;14.23;71.08
48614;BME280;34408;51.426;5.444;2024-02-16T10:26:31;101189.94;;;14.18;71.25
48614;BME280;34408;51.426;5.444;2024-02-16T10:28:59;101195.47;;;14.11;71.38
48614;BME280;34408;51.426;5.444;2024-02-16T10:31:30;101205.09;;;13.95;72.07
48614;BME280;34408;51.426;5.444;2024-02-16T10:34:02;101209.34;;;13.80;72.89
48614;BME280;34408;51.426;5.444;2024-02-16T10:36:33;101213.47;;;13.71;72.92
48614;BME280;34408;51.426;5.444;2024-02-16T10:39:03;101214.03;;;13.61;73.41
48614;BME280;34408;51.426;5.444;2024-02-16T10:41:34;101217.53;;;13.50;73.77
48614;BME280;34408;51.426;5.444;2024-02-16T10:44:03;101225.50;;;13.45;74.04
48614;BME280;34408;51.426;5.444;2024-02-16T10:46:32;101230.78;;;13.40;74.21
48614;BME280;34408;51.426;5.444;2024-02-16T10:49:03;101229.81;;;13.34;74.36
48614;BME280;34408;51.426;5.444;2024-02-16T10:51:35;101235.31;;;13.27;74.64
48614;BME280;34408;51.426;5.444;2024-02-16T10:54:06;101244.34;;;13.21;74.53
48614;BME280;34408;51.426;5.444;2024-02-16T10:56:36;101250.44;;;13.17;74.62
48614;BME280;34408;51.426;5.444;2024-02-16T10:59:06;101250.25;;;13.12;74.95
48614;BME280;34408;51.426;5.444;2024-02-16T11:01:38;101244.25;;;13.10;75.11
48614;BME280;34408;51.426;5.444;2024-02-16T11:04:09;101250.94;;;13.07;75.48
48614;BME280;34408;51.426;5.444;2024-02-16T11:06:48;101252.22;;;13.04;75.52
48614;BME280;34408;51.426;5.444;2024-02-16T11:09:25;101251.03;;;13.00;75.22
48614;BME280;34408;51.426;5.444;2024-02-16T11:11:53;101257.69;;;12.98;75.57
48614;BME280;34408;51.426;5.444;2024-02-16T11:14:22;101258.16;;;12.95;75.64
48614;BME280;34408;51.426;5.444;2024-02-16T11:16:53;101270.22;;;12.92;75.67
48614;BME280;34408;51.426;5.444;2024-02-16T11:19:24;101266.09;;;12.90;75.58
48614;BME280;34408;51.426;5.444;2024-02-16T11:21:56;101273.38;;;12.89;76.12
48614;BME280;34408;51.426;5.444;2024-02-16T11:24:30;101269.50;;;12.85;76.34
48614;BME280;34408;51.426;5.444;2024-02-16T11:27:00;101266.41;;;12.82;76.12
48614;BME280;34408;51.426;5.444;2024-02-16T11:29:31;101272.63;;;12.82;75.90
48614;BME280;34408;51.426;5.444;2024-02-16T11:32:00;101273.69;;;12.81;76.34
48614;BME280;34408;51.426;5.444;2024-02-16T11:34:31;101280.13;;;12.80;76.20
48614;BME280;34408;51.426;5.444;2024-02-16T11:37:01;101277.66;;;12.79;76.58
48614;BME280;34408;51.426;5.444;2024-02-16T11:39:29;101285.75;;;12.79;76.21
48614;BME280;34408;51.426;5.444;2024-02-16T11:42:02;101295.94;;;12.77;76.44
48614;BME280;34408;51.426;5.444;2024-02-16T11:44:30;101297.00;;;12.76;76.96
48614;BME280;34408;51.426;5.444;2024-02-16T11:46:58;101305.31;;;12.74;77.31
48614;BME280;34408;51.426;5.444;2024-02-16T11:49:28;101303.66;;;12.73;76.78
48614;BME280;34408;51.426;5.444;2024-02-16T11:51:59;101303.06;;;12.71;77.31
48614;BME280;34408;51.426;5.444;2024-02-16T11:54:27;101316.31;;;12.73;76.82
48614;BME280;34408;51.426;5.444;2024-02-16T11:56:56;101309.88;;;12.74;77.49
48614;BME280;34408;51.426;5.444;2024-02-16T11:59:24;101325.22;;;12.73;77.09
48614;BME280;34408;51.426;5.444;2024-02-16T12:01:53;101317.75;;;12.75;77.78
48614;BME280;34408;51.426;5.444;2024-02-16T12:04:22;101318.56;;;12.76;78.01
48614;BME280;34408;51.426;5.444;2024-02-16T12:06:52;101323.50;;;12.79;78.36
48614;BME280;34408;51.426;5.444;2024-02-16T12:09:22;101321.34;;;12.87;77.93
48614;BME280;34408;51.426;5.444;2024-02-16T12:11:52;101326.56;;;13.00;77.62
48614;BME280;34408;51.426;5.444;2024-02-16T12:14:22;101335.75;;;13.18;77.74
48614;BME280;34408;51.426;5.444;2024-02-16T12:16:51;101334.28;;;13.33;77.03
48614;BME280;34408;51.426;5.444;2024-02-16T12:19:19;101335.88;;;13.53;76.37
48614;BME280;34408;51.426;5.444;2024-02-16T12:21:49;101340.66;;;13.69;76.02
48614;BME280;34408;51.426;5.444;2024-02-16T12:24:18;101342.56;;;13.80;75.30
48614;BME280;34408;51.426;5.444;2024-02-16T12:26:47;101346.31;;;13.79;75.55
48614;BME280;34408;51.426;5.444;2024-02-16T12:29:15;101349.94;;;13.73;75.67
48614;BME280;34408;51.426;5.444;2024-02-16T12:31:44;101355.88;;;13.63;76.28
48614;BME280;34408;51.426;5.444;2024-02-16T12:34:14;101356.91;;;13.51;76.80
48614;BME280;34408;51.426;5.444;2024-02-16T12:36:42;101357.22;;;13.43;77.74
48614;BME280;34408;51.426;5.444;2024-02-16T12:39:16;101361.75;;;13.30;78.93
48614;BME280;34408;51.426;5.444;2024-02-16T12:41:44;101372.25;;;13.20;79.01
48614;BME280;34408;51.426;5.444;2024-02-16T12:44:13;101378.75;;;13.13;79.47
48614;BME280;34408;51.426;5.444;2024-02-16T12:46:41;101381.50;;;13.06;79.73
48614;BME280;34408;51.426;5.444;2024-02-16T12:49:09;101393.81;;;13.02;79.86
48614;BME280;34408;51.426;5.444;2024-02-16T12:51:37;101394.19;;;13.06;80.00
48614;BME280;34408;51.426;5.444;2024-02-16T12:54:05;101402.50;;;13.04;79.57
48614;BME280;34408;51.426;5.444;2024-02-16T12:56:34;101400.84;;;13.03;79.98
48614;BME280;34408;51.426;5.444;2024-02-16T12:59:02;101406.47;;;13.01;79.93